Time;durP1;ratioP1;P1;durP2;ratioP2;P2;SDS_P1;SDS_P2;PMS_P1;PMS_P2;Temp;Humidity;BMP_temperature;BMP_pressure;BME280_temperature;BME280_humidity;BME280_pressure;Samples;Min_cycle;Max_cycle;Signal;HPM_P1;HPM_P2
2022/07/02 00:01:29;;;;;;;11.65;10.43;;;;;;;;;;5112393;28;20059;-54
2022/07/02 00:04:02;;;;;;;19.00;10.35;;;;;;;;;;5112461;28;20077;-53
2022/07/02 00:06:31;;;;;;;10.45;9.38;;;;;;;;;;5112469;28;20507;-53
2022/07/02 00:08:59;;;;;;;11.45;9.85;;;;;;;;;;5112130;28;20047;-54
2022/07/02 00:11:27;;;;;;;10.95;9.02;;;;;;;;;;5112602;28;20513;-55
2022/07/02 00:13:55;;;;;;;10.45;9.40;;;;;;;;;;5112627;28;20039;-53
2022/07/02 00:16:22;;;;;;;10.65;9.57;;;;;;;;;;5113276;28;20113;-54
2022/07/02 00:18:49;;;;;;;10.95;9.88;;;;;;;;;;5113009;28;20046;-51
2022/07/02 00:21:18;;;;;;;10.68;9.57;;;;;;;;;;5112849;28;20048;-54
2022/07/02 00:23:45;;;;;;;9.98;8.98;;;;;;;;;;5113223;28;20388;-54
2022/07/02 00:26:28;;;;;;;11.40;10.30;;;;;;;;;;5112973;28;20040;-55
2022/07/02 00:29:33;;;;;;;10.35;9.35;;;;;;;;;;5112735;28;20888;-55
2022/07/02 00:32:00;;;;;;;10.18;9.18;;;;;;;;;;5071554;28;20135;-55
2022/07/02 00:34:32;;;;;;;10.40;8.60;;;;;;;;;;5113046;28;20441;-51
2022/07/02 00:37:02;;;;;;;11.20;9.13;;;;;;;;;;5112966;28;20044;-55
2022/07/02 00:39:29;;;;;;;12.93;11.73;;;;;;;;;;5112610;28;20118;-55
2022/07/02 00:41:59;;;;;;;12.63;9.50;;;;;;;;;;5112558;28;20043;-52
2022/07/02 00:44:26;;;;;;;10.68;9.57;;;;;;;;;;5112463;28;20499;-55
2022/07/02 00:46:54;;;;;;;9.27;8.35;;;;;;;;;;5112122;28;20036;-55
2022/07/02 00:49:21;;;;;;;10.15;8.55;;;;;;;;;;5112675;28;20043;-54
2022/07/02 00:51:49;;;;;;;9.40;8.43;;;;;;;;;;5112626;28;20474;-53
2022/07/02 00:54:16;;;;;;;10.77;9.77;;;;;;;;;;5112772;28;20036;-53
2022/07/02 00:56:43;;;;;;;9.98;8.98;;;;;;;;;;5112504;28;20055;-51
2022/07/02 00:59:11;;;;;;;11.45;10.35;;;;;;;;;;5112645;28;20039;-54
2022/07/02 01:01:38;;;;;;;10.80;9.52;;;;;;;;;;5112456;28;20511;-55
2022/07/02 01:04:06;;;;;;;9.15;8.25;;;;;;;;;;5112831;28;20047;-54
2022/07/02 01:06:38;;;;;;;10.80;8.90;;;;;;;;;;5112739;28;20036;-55
2022/07/02 01:12:08;;;;;;;8.85;7.85;;;;;;;;;;5089627;28;20048;-53
2022/07/02 01:14:36;;;;;;;11.13;8.57;;;;;;;;;;5077663;28;20035;-55
2022/07/02 01:17:04;;;;;;;9.50;8.60;;;;;;;;;;5112494;28;20050;-55
2022/07/02 01:19:33;;;;;;;9.32;8.43;;;;;;;;;;5112481;28;20399;-54
2022/07/02 01:22:14;;;;;;;9.70;8.75;;;;;;;;;;5091837;28;20051;-54
2022/07/02 01:24:43;;;;;;;10.43;9.32;;;;;;;;;;5091848;28;20457;-55
2022/07/02 01:27:10;;;;;;;37.63;22.40;;;;;;;;;;5091878;28;20042;-55
2022/07/02 01:29:38;;;;;;;15.50;11.68;;;;;;;;;;5091565;28;20039;-53
2022/07/02 01:32:06;;;;;;;10.18;9.18;;;;;;;;;;5074341;28;20043;-55
2022/07/02 01:34:36;;;;;;;9.05;8.15;;;;;;;;;;5074174;28;20074;-54
2022/07/02 01:37:08;;;;;;;11.05;9.00;;;;;;;;;;5092074;28;20144;-55
2022/07/02 01:39:37;;;;;;;9.68;8.60;;;;;;;;;;5091823;28;20044;-56
2022/07/02 01:42:06;;;;;;;9.13;8.07;;;;;;;;;;5091864;28;20376;-55
2022/07/02 01:44:35;;;;;;;8.85;7.90;;;;;;;;;;5092054;28;20040;-54
2022/07/02 01:47:06;;;;;;;8.85;8.02;;;;;;;;;;5091834;28;20432;-54
2022/07/02 01:49:34;;;;;;;10.90;9.75;;;;;;;;;;5092162;28;20036;-56
2022/07/02 01:52:03;;;;;;;9.23;8.32;;;;;;;;;;5091511;28;20044;-55
2022/07/02 01:54:31;;;;;;;9.70;8.70;;;;;;;;;;5091603;28;20068;-54
2022/07/02 01:57:00;;;;;;;9.48;8.38;;;;;;;;;;5091847;28;20040;-55
2022/07/02 01:59:28;;;;;;;10.43;8.60;;;;;;;;;;5095294;28;20047;-54
2022/07/02 02:01:55;;;;;;;9.35;8.35;;;;;;;;;;5095486;28;20131;-56
2022/07/02 02:04:22;;;;;;;9.55;7.90;;;;;;;;;;5095257;28;20036;-55
2022/07/02 02:06:50;;;;;;;9.35;8.15;;;;;;;;;;5095315;28;20036;-54
2022/07/02 02:09:17;;;;;;;10.55;8.85;;;;;;;;;;5112467;28;20034;-55
2022/07/02 02:11:44;;;;;;;9.57;8.57;;;;;;;;;;5115510;28;20395;-56
2022/07/02 02:14:12;;;;;;;10.00;8.35;;;;;;;;;;5115765;28;20051;-56
2022/07/02 02:16:39;;;;;;;11.85;9.73;;;;;;;;;;5115817;28;20046;-55
2022/07/02 02:19:07;;;;;;;10.38;9.13;;;;;;;;;;5115523;28;20085;-55
2022/07/02 02:21:34;;;;;;;8.95;8.07;;;;;;;;;;5115788;28;20043;-57
2022/07/02 02:24:02;;;;;;;10.13;9.02;;;;;;;;;;5115516;28;20429;-56
2022/07/02 02:26:29;;;;;;;10.18;9.07;;;;;;;;;;5115286;28;20044;-56
2022/07/02 02:28:57;;;;;;;9.48;8.57;;;;;;;;;;5115363;28;20036;-55
2022/07/02 02:31:24;;;;;;;9.80;8.80;;;;;;;;;;5115148;28;20383;-55
2022/07/02 02:33:51;;;;;;;10.57;9.50;;;;;;;;;;5115471;28;20039;-56
2022/07/02 02:36:19;;;;;;;8.23;7.45;;;;;;;;;;5115072;28;20047;-56
2022/07/02 02:38:46;;;;;;;8.50;7.70;;;;;;;;;;5115341;28;20067;-56
2022/07/02 02:41:14;;;;;;;9.10;8.20;;;;;;;;;;5114974;28;20047;-55
2022/07/02 02:43:42;;;;;;;8.57;7.78;;;;;;;;;;5114959;28;20046;-55
2022/07/02 02:46:09;;;;;;;8.73;7.68;;;;;;;;;;5115116;28;20039;-52
2022/07/02 02:48:38;;;;;;;8.63;7.72;;;;;;;;;;5115091;28;20043;-57
2022/07/02 02:51:07;;;;;;;8.05;7.25;;;;;;;;;;5114915;28;20056;-56
2022/07/02 02:53:34;;;;;;;8.32;7.50;;;;;;;;;;5114651;28;20074;-56
2022/07/02 02:56:02;;;;;;;9.07;8.25;;;;;;;;;;5115082;28;20044;-56
2022/07/02 02:58:30;;;;;;;8.95;8.05;;;;;;;;;;5114829;28;20050;-56
2022/07/02 03:00:57;;;;;;;10.02;9.02;;;;;;;;;;5114634;28;20503;-56
2022/07/02 03:03:25;;;;;;;9.23;8.20;;;;;;;;;;5114810;28;20115;-56
2022/07/02 03:05:53;;;;;;;9.15;8.35;;;;;;;;;;5114606;28;20082;-57
2022/07/02 03:08:21;;;;;;;8.90;7.53;;;;;;;;;;5114507;28;20040;-57
2022/07/02 03:10:48;;;;;;;8.60;7.60;;;;;;;;;;5113898;28;20036;-55
2022/07/02 03:13:16;;;;;;;7.95;7.20;;;;;;;;;;5114455;28;20118;-57
2022/07/02 03:15:43;;;;;;;8.02;7.22;;;;;;;;;;5114533;28;20040;-56
2022/07/02 03:18:10;;;;;;;8.82;8.00;;;;;;;;;;5114407;28;20371;-55
2022/07/02 03:20:37;;;;;;;8.30;7.50;;;;;;;;;;5113642;28;20093;-56
2022/07/02 03:23:05;;;;;;;8.90;8.00;;;;;;;;;;5114540;28;20459;-56
2022/07/02 03:25:32;;;;;;;8.75;7.85;;;;;;;;;;5110048;28;20063;-54
2022/07/02 03:27:59;;;;;;;8.00;6.93;;;;;;;;;;5093979;28;20036;-56
2022/07/02 03:30:27;;;;;;;8.18;7.40;;;;;;;;;;5093811;28;20040;-57
2022/07/02 03:32:54;;;;;;;8.27;7.47;;;;;;;;;;5093304;28;20032;-57
2022/07/02 03:35:21;;;;;;;8.55;6.82;;;;;;;;;;5093713;28;20047;-56
2022/07/02 03:37:48;;;;;;;7.50;6.80;;;;;;;;;;5093544;28;20499;-57
2022/07/02 03:40:16;;;;;;;8.32;7.53;;;;;;;;;;5093555;28;20093;-56
2022/07/02 03:42:43;;;;;;;10.57;6.60;;;;;;;;;;5093577;28;20418;-57
2022/07/02 03:45:10;;;;;;;8.40;7.60;;;;;;;;;;5093386;28;20036;-55
2022/07/02 03:47:38;;;;;;;7.68;6.97;;;;;;;;;;5093393;28;20036;-56
2022/07/02 03:50:05;;;;;;;7.28;6.57;;;;;;;;;;5093721;28;20028;-57
2022/07/02 03:52:33;;;;;;;7.60;6.80;;;;;;;;;;5093312;28;20499;-57
2022/07/02 03:55:00;;;;;;;8.02;7.22;;;;;;;;;;5093393;28;20036;-58
2022/07/02 03:57:28;;;;;;;8.23;6.90;;;;;;;;;;5109064;28;20556;-57
2022/07/02 03:59:55;;;;;;;10.38;7.18;;;;;;;;;;5093279;28;20037;-58
2022/07/02 04:02:22;;;;;;;8.75;6.65;;;;;;;;;;5092894;28;20499;-57
2022/07/02 04:04:50;;;;;;;7.35;6.65;;;;;;;;;;5093052;28;20048;-57
2022/07/02 04:07:17;;;;;;;43.97;30.52;;;;;;;;;;5093255;28;20090;-56
2022/07/02 04:09:45;;;;;;;23.13;16.77;;;;;;;;;;5092789;28;20560;-57
2022/07/02 04:12:12;;;;;;;7.55;6.68;;;;;;;;;;5092834;28;20169;-57
2022/07/02 04:14:39;;;;;;;7.78;7.03;;;;;;;;;;5074541;28;20123;-57
2022/07/02 04:17:07;;;;;;;6.65;5.78;;;;;;;;;;5074626;28;20044;-58
2022/07/02 04:19:35;;;;;;;6.35;5.75;;;;;;;;;;5092892;28;20039;-56
2022/07/02 04:22:02;;;;;;;6.70;5.15;;;;;;;;;;5112501;28;20065;-58
2022/07/02 04:24:30;;;;;;;13.45;9.55;;;;;;;;;;5113056;28;20048;-58
2022/07/02 04:26:57;;;;;;;14.07;10.48;;;;;;;;;;5112992;28;20521;-58
2022/07/02 04:29:24;;;;;;;7.00;5.10;;;;;;;;;;5112999;28;20440;-58
2022/07/02 04:31:52;;;;;;;4.95;4.45;;;;;;;;;;5113043;28;20036;-57
2022/07/02 04:34:21;;;;;;;4.88;4.20;;;;;;;;;;5112851;28;20445;-57
2022/07/02 04:36:48;;;;;;;5.00;4.03;;;;;;;;;;5113112;28;20047;-57
2022/07/02 04:39:21;;;;;;;8.67;4.83;;;;;;;;;;5112905;28;20039;-58
2022/07/02 04:41:48;;;;;;;4.72;4.22;;;;;;;;;;5112676;28;20040;-58
2022/07/02 04:44:15;;;;;;;4.88;3.92;;;;;;;;;;5112728;28;20558;-58
2022/07/02 04:46:45;;;;;;;5.32;3.13;;;;;;;;;;5112619;28;20096;-57
2022/07/02 04:49:12;;;;;;;4.10;3.20;;;;;;;;;;5112903;28;20093;-57
2022/07/02 04:51:39;;;;;;;4.10;3.47;;;;;;;;;;5112733;28;20538;-58
2022/07/02 04:54:07;;;;;;;4.97;3.67;;;;;;;;;;5113011;28;20040;-57
2022/07/02 04:56:34;;;;;;;6.72;3.95;;;;;;;;;;5112534;28;20043;-57
2022/07/02 04:59:02;;;;;;;89.60;68.18;;;;;;;;;;5112574;28;20032;-56
2022/07/02 05:01:29;;;;;;;13.13;10.65;;;;;;;;;;5112639;28;20069;-57
2022/07/02 05:03:57;;;;;;;5.22;4.50;;;;;;;;;;5112514;28;20032;-58
2022/07/02 05:06:24;;;;;;;5.00;4.30;;;;;;;;;;5112443;28;20038;-58
2022/07/02 05:08:52;;;;;;;4.53;3.90;;;;;;;;;;5112340;28;20040;-57
2022/07/02 05:11:19;;;;;;;5.63;4.15;;;;;;;;;;5112616;28;20119;-58
2022/07/02 05:13:47;;;;;;;7.10;4.18;;;;;;;;;;5112477;28;20055;-58
2022/07/02 05:16:16;;;;;;;5.03;4.32;;;;;;;;;;5112330;28;20032;-57
2022/07/02 05:18:43;;;;;;;5.72;4.13;;;;;;;;;;5112549;28;20040;-58
2022/07/02 05:21:10;;;;;;;5.47;4.07;;;;;;;;;;5112397;28;20036;-58
2022/07/02 05:23:37;;;;;;;5.10;3.85;;;;;;;;;;5112214;28;20035;-59
2022/07/02 05:26:05;;;;;;;7.45;4.00;;;;;;;;;;5112503;28;20514;-58
2022/07/02 05:28:32;;;;;;;8.90;5.85;;;;;;;;;;5112737;28;20066;-56
2022/07/02 05:31:00;;;;;;;7.65;4.88;;;;;;;;;;5112387;28;20122;-57
2022/07/02 05:33:27;;;;;;;5.57;4.07;;;;;;;;;;5115096;28;20048;-58
2022/07/02 05:35:55;;;;;;;5.63;4.15;;;;;;;;;;5116122;28;20494;-58
2022/07/02 05:38:22;;;;;;;5.25;4.57;;;;;;;;;;5115940;28;20528;-57
2022/07/02 05:40:49;;;;;;;6.22;4.20;;;;;;;;;;5116300;28;20039;-57
2022/07/02 05:43:16;;;;;;;4.60;4.00;;;;;;;;;;5116292;28;20138;-57
2022/07/02 05:45:44;;;;;;;5.85;4.22;;;;;;;;;;5116054;28;20039;-56
2022/07/02 05:48:16;;;;;;;22.10;16.27;;;;;;;;;;5116208;28;20031;-58
2022/07/02 05:50:44;;;;;;;6.28;5.32;;;;;;;;;;5115744;28;20044;-57
2022/07/02 05:53:11;;;;;;;5.13;4.13;;;;;;;;;;5116271;28;20556;-58
2022/07/02 05:55:39;;;;;;;4.45;3.78;;;;;;;;;;5115849;28;20527;-57
2022/07/02 05:58:07;;;;;;;4.80;3.97;;;;;;;;;;5116216;28;20034;-57
2022/07/02 06:00:34;;;;;;;5.20;4.00;;;;;;;;;;5115930;28;20032;-58
2022/07/02 06:03:03;;;;;;;6.50;3.97;;;;;;;;;;5115742;28;20044;-58
2022/07/02 06:08:17;;;;;;;4.60;3.80;;;;;;;;;;5114680;28;20036;-58
2022/07/02 06:10:44;;;;;;;4.32;3.92;;;;;;;;;;5096949;28;20039;-58
2022/07/02 06:13:11;;;;;;;7.50;4.13;;;;;;;;;;5114647;28;20421;-58
2022/07/02 06:15:38;;;;;;;5.22;3.65;;;;;;;;;;5114644;28;20036;-58
2022/07/02 06:18:05;;;;;;;3.92;3.50;;;;;;;;;;5113716;28;20047;-58
2022/07/02 06:20:33;;;;;;;7.20;3.88;;;;;;;;;;5113551;28;20047;-56
2022/07/02 06:23:00;;;;;;;5.78;4.22;;;;;;;;;;5113235;28;20189;-57
2022/07/02 06:25:27;;;;;;;5.57;3.92;;;;;;;;;;5113209;28;20115;-58
2022/07/02 06:27:55;;;;;;;6.85;3.88;;;;;;;;;;5113404;28;20070;-58
2022/07/02 06:30:23;;;;;;;5.22;3.53;;;;;;;;;;5112990;28;20053;-58
2022/07/02 06:32:50;;;;;;;4.63;3.90;;;;;;;;;;5114601;28;20089;-60
2022/07/02 06:35:18;;;;;;;4.20;3.40;;;;;;;;;;5115424;28;20039;-58
2022/07/02 06:37:47;;;;;;;4.97;3.38;;;;;;;;;;5115172;28;20089;-58
2022/07/02 06:40:15;;;;;;;4.53;3.60;;;;;;;;;;5115113;28;20039;-57
2022/07/02 06:42:42;;;;;;;4.18;3.30;;;;;;;;;;5114946;28;20092;-58
2022/07/02 06:45:10;;;;;;;4.82;3.63;;;;;;;;;;5114116;28;20066;-59
2022/07/02 06:47:42;;;;;;;4.00;3.55;;;;;;;;;;5115160;28;20039;-60
2022/07/02 06:50:11;;;;;;;4.43;3.45;;;;;;;;;;5114983;28;20112;-58
2022/07/02 06:52:39;;;;;;;5.72;3.80;;;;;;;;;;5114841;28;20043;-58
2022/07/02 06:55:06;;;;;;;3.58;3.22;;;;;;;;;;5115036;28;20085;-58
2022/07/02 06:57:35;;;;;;;6.40;3.67;;;;;;;;;;5114872;28;20046;-58
2022/07/02 07:00:04;;;;;;;4.38;3.80;;;;;;;;;;5114712;28;20081;-58
2022/07/02 07:02:32;;;;;;;5.78;3.70;;;;;;;;;;5114746;28;20104;-58
2022/07/02 07:04:59;;;;;;;3.85;3.40;;;;;;;;;;5114809;28;20044;-58
2022/07/02 07:07:28;;;;;;;6.35;3.80;;;;;;;;;;5114483;28;20035;-58
2022/07/02 07:09:56;;;;;;;4.18;3.70;;;;;;;;;;5114566;28;20039;-58
2022/07/02 07:12:23;;;;;;;4.43;3.50;;;;;;;;;;5114302;28;20829;-58
2022/07/02 07:14:50;;;;;;;5.43;3.90;;;;;;;;;;5114664;28;20035;-58
2022/07/02 07:17:18;;;;;;;4.25;3.85;;;;;;;;;;5114452;28;20047;-57
2022/07/02 07:19:45;;;;;;;5.63;3.58;;;;;;;;;;5114315;28;20071;-58
2022/07/02 07:22:13;;;;;;;5.35;4.20;;;;;;;;;;5114142;28;20040;-57
2022/07/02 07:24:40;;;;;;;4.97;3.75;;;;;;;;;;5114256;28;20039;-58
2022/07/02 07:27:08;;;;;;;4.25;3.85;;;;;;;;;;5114127;28;20517;-58
2022/07/02 07:29:35;;;;;;;3.97;3.58;;;;;;;;;;5114306;28;20047;-58
2022/07/02 07:32:03;;;;;;;4.10;3.67;;;;;;;;;;5114181;28;20441;-57
2022/07/02 07:34:33;;;;;;;4.47;3.75;;;;;;;;;;5114025;28;20569;-57
2022/07/02 07:37:00;;;;;;;5.70;4.00;;;;;;;;;;5113584;28;20122;-57
2022/07/02 07:39:28;;;;;;;7.47;4.30;;;;;;;;;;5114130;28;20074;-57
2022/07/02 07:41:55;;;;;;;5.43;2.97;;;;;;;;;;5113968;28;20394;-58
2022/07/02 07:44:22;;;;;;;4.80;3.58;;;;;;;;;;5113362;28;20100;-58
2022/07/02 07:46:50;;;;;;;20.92;16.95;;;;;;;;;;5113400;28;20459;-56
2022/07/02 07:49:18;;;;;;;4.85;4.35;;;;;;;;;;5113572;28;20039;-58
2022/07/02 07:51:45;;;;;;;3.90;3.15;;;;;;;;;;5113351;28;20131;-57
2022/07/02 07:54:13;;;;;;;4.32;2.88;;;;;;;;;;5113453;28;20062;-57
2022/07/02 07:56:41;;;;;;;4.28;3.00;;;;;;;;;;5113276;28;20459;-58
2022/07/02 07:59:08;;;;;;;3.60;2.60;;;;;;;;;;5113669;28;20036;-56
2022/07/02 08:01:36;;;;;;;4.65;3.22;;;;;;;;;;5113903;28;20112;-59
2022/07/02 08:04:03;;;;;;;3.40;2.80;;;;;;;;;;5113487;28;20075;-58
2022/07/02 08:06:31;;;;;;;4.30;3.20;;;;;;;;;;5113371;28;20042;-58
2022/07/02 08:08:59;;;;;;;3.40;2.55;;;;;;;;;;5113345;28;20662;-57
2022/07/02 08:11:27;;;;;;;3.78;2.75;;;;;;;;;;5113442;28;20040;-58
2022/07/02 08:13:55;;;;;;;4.95;4.25;;;;;;;;;;5113510;28;20088;-58
2022/07/02 08:16:22;;;;;;;3.50;2.80;;;;;;;;;;5113125;28;20390;-58
2022/07/02 08:18:52;;;;;;;5.13;2.80;;;;;;;;;;5113127;28;20043;-58
2022/07/02 08:21:19;;;;;;;3.85;3.25;;;;;;;;;;5113001;28;20482;-57
2022/07/02 08:23:46;;;;;;;3.72;3.00;;;;;;;;;;5113192;28;20035;-60
2022/07/02 08:26:14;;;;;;;4.07;2.60;;;;;;;;;;5112794;28;20054;-58
2022/07/02 08:28:41;;;;;;;4.40;3.00;;;;;;;;;;5112953;28;20041;-57
2022/07/02 08:31:09;;;;;;;3.53;2.85;;;;;;;;;;5112946;28;20374;-60
2022/07/02 08:33:36;;;;;;;3.53;2.85;;;;;;;;;;5113157;28;20039;-58
2022/07/02 08:36:03;;;;;;;3.63;2.90;;;;;;;;;;5112997;28;20064;-58
2022/07/02 08:38:31;;;;;;;5.80;3.88;;;;;;;;;;5112694;28;20035;-58
2022/07/02 08:40:58;;;;;;;3.40;2.97;;;;;;;;;;5112884;28;20036;-58
2022/07/02 08:43:27;;;;;;;5.00;2.78;;;;;;;;;;5112964;28;20040;-58
2022/07/02 08:45:55;;;;;;;3.83;3.00;;;;;;;;;;5112703;28;20529;-58
2022/07/02 08:48:24;;;;;;;4.28;2.97;;;;;;;;;;5112590;28;20043;-58
2022/07/02 08:50:52;;;;;;;4.38;3.63;;;;;;;;;;5112516;28;20101;-58
2022/07/02 08:53:20;;;;;;;3.95;3.30;;;;;;;;;;5112682;28;20122;-58
2022/07/02 08:55:50;;;;;;;3.83;3.30;;;;;;;;;;5112679;28;20044;-58
2022/07/02 08:58:20;;;;;;;3.58;3.05;;;;;;;;;;5112210;28;20044;-57
2022/07/02 09:00:48;;;;;;;4.63;3.28;;;;;;;;;;5112498;28;20032;-58
2022/07/02 09:03:19;;;;;;;4.25;3.22;;;;;;;;;;5112590;28;20058;-58
2022/07/02 09:05:50;;;;;;;3.67;3.13;;;;;;;;;;5112648;28;20034;-59
2022/07/02 09:08:19;;;;;;;3.53;3.00;;;;;;;;;;5093870;28;20057;-57
2022/07/02 09:10:47;;;;;;;3.40;3.10;;;;;;;;;;5112196;28;20043;-58
2022/07/02 09:13:15;;;;;;;11.40;8.45;;;;;;;;;;5112388;28;20047;-56
2022/07/02 09:15:43;;;;;;;4.80;3.38;;;;;;;;;;5112624;28;20487;-58
2022/07/02 09:18:11;;;;;;;3.90;3.33;;;;;;;;;;5112352;28;20035;-59
2022/07/02 09:20:38;;;;;;;3.88;2.90;;;;;;;;;;5094446;28;20084;-58
2022/07/02 09:23:10;;;;;;;4.68;3.00;;;;;;;;;;5112353;28;20040;-58
2022/07/02 09:25:40;;;;;;;4.60;3.42;;;;;;;;;;5112406;28;20039;-58
2022/07/02 09:28:07;;;;;;;4.28;3.58;;;;;;;;;;5112578;28;20065;-58
2022/07/02 09:30:38;;;;;;;5.60;3.10;;;;;;;;;;5112380;28;20115;-58
2022/07/02 09:33:30;;;;;;;4.68;3.53;;;;;;;;;;5112448;28;20097;-59
2022/07/02 09:36:02;;;;;;;;;;;;;;;;;;5112661;28;20031;-58
2022/07/02 09:38:29;;;;;;;9.63;6.70;;;;;;;;;;5112123;28;19920;-58
2022/07/02 09:40:59;;;;;;;5.65;3.45;;;;;;;;;;5112097;28;20406;-58
2022/07/02 09:43:28;;;;;;;3.25;2.90;;;;;;;;;;5112224;28;21822;-59
2022/07/02 09:45:59;;;;;;;3.80;3.10;;;;;;;;;;5112106;28;20042;-59
2022/07/02 09:48:27;;;;;;;5.65;3.15;;;;;;;;;;5111440;28;20085;-58
2022/07/02 09:50:54;;;;;;;3.80;3.40;;;;;;;;;;5111990;28;20051;-58
2022/07/02 09:53:22;;;;;;;5.70;3.50;;;;;;;;;;5112164;28;20036;-54
2022/07/02 09:55:50;;;;;;;5.05;3.70;;;;;;;;;;5112095;28;20039;-56
2022/07/02 09:58:26;;;;;;;4.85;3.33;;;;;;;;;;5112009;28;20074;-60
2022/07/02 10:00:55;;;;;;;4.18;3.28;;;;;;;;;;5111724;28;20048;-57
2022/07/02 10:03:24;;;;;;;120.63;108.72;;;;;;;;;;5112289;28;20415;-59
2022/07/02 10:05:54;;;;;;;9.27;8.32;;;;;;;;;;5111902;28;20036;-58
2022/07/02 10:08:23;;;;;;;5.75;4.55;;;;;;;;;;5112149;28;20085;-58
2022/07/02 10:10:51;;;;;;;5.18;2.97;;;;;;;;;;5111819;28;20035;-54
2022/07/02 10:13:18;;;;;;;4.32;3.50;;;;;;;;;;5111886;28;20040;-57
2022/07/02 10:15:59;;;;;;;5.03;3.47;;;;;;;;;;5111928;28;20040;-57
2022/07/02 10:18:28;;;;;;;7.60;3.80;;;;;;;;;;5112717;28;20031;-55
2022/07/02 10:20:57;;;;;;;6.65;3.60;;;;;;;;;;5115450;28;20105;-54
2022/07/02 10:23:24;;;;;;;4.55;3.45;;;;;;;;;;5115661;28;20090;-58
2022/07/02 10:25:52;;;;;;;4.65;3.55;;;;;;;;;;5115362;28;20490;-58
2022/07/02 10:28:20;;;;;;;5.45;3.60;;;;;;;;;;5115408;28;20101;-57
2022/07/02 10:30:48;;;;;;;5.47;4.05;;;;;;;;;;5115422;28;20430;-58
2022/07/02 10:33:40;;;;;;;4.75;3.72;;;;;;;;;;5115565;28;20032;-59
2022/07/02 10:36:10;;;;;;;6.55;3.85;;;;;;;;;;5115271;28;20046;-59
2022/07/02 10:38:39;;;;;;;10.07;7.90;;;;;;;;;;5115305;28;20065;-59
2022/07/02 10:41:09;;;;;;;5.00;4.45;;;;;;;;;;5115301;28;20032;-54
2022/07/02 10:43:39;;;;;;;4.63;3.90;;;;;;;;;;5115303;28;20073;-54
2022/07/02 10:46:09;;;;;;;6.10;4.28;;;;;;;;;;5115384;28;20498;-57
2022/07/02 10:49:05;;;;;;;4.20;3.65;;;;;;;;;;5115332;28;20059;-57
2022/07/02 10:51:35;;;;;;;5.65;3.80;;;;;;;;;;5112845;28;20056;-57
2022/07/02 10:54:07;;;;;;;4.68;3.83;;;;;;;;;;5115084;28;20039;-57
2022/07/02 10:56:54;;;;;;;5.50;3.90;;;;;;;;;;5115196;28;20042;-57
2022/07/02 10:59:27;;;;;;;4.75;3.97;;;;;;;;;;5114822;28;20042;-57
2022/07/02 11:02:08;;;;;;;4.65;4.03;;;;;;;;;;5114897;28;20044;-58
2022/07/02 11:04:36;;;;;;;17.35;13.02;;;;;;;;;;5115059;28;20047;-56
2022/07/02 11:07:13;;;;;;;6.85;4.70;;;;;;;;;;5114782;28;20441;-54
2022/07/02 11:09:47;;;;;;;5.00;4.30;;;;;;;;;;5114537;28;20038;-56
2022/07/02 11:12:23;;;;;;;5.78;4.07;;;;;;;;;;5114613;28;20110;-57
2022/07/02 11:14:57;;;;;;;6.03;4.20;;;;;;;;;;5095986;28;20040;-57
2022/07/02 11:17:53;;;;;;;5.05;4.07;;;;;;;;;;5114378;28;20115;-56
2022/07/02 11:20:27;;;;;;;4.90;3.70;;;;;;;;;;5114236;28;20042;-56
2022/07/02 11:22:57;;;;;;;6.65;3.80;;;;;;;;;;5110467;28;20449;-57
2022/07/02 11:25:29;;;;;;;6.05;4.15;;;;;;;;;;5114406;28;20036;-57
2022/07/02 11:28:01;;;;;;;7.18;4.13;;;;;;;;;;5114272;28;20406;-57
2022/07/02 11:30:31;;;;;;;6.13;4.47;;;;;;;;;;5113693;28;20066;-57
2022/07/02 11:32:58;;;;;;;5.55;4.13;;;;;;;;;;5114293;28;20471;-56
2022/07/02 11:35:26;;;;;;;4.85;3.67;;;;;;;;;;5114220;28;20031;-57
2022/07/02 11:38:00;;;;;;;6.13;3.70;;;;;;;;;;5113813;28;20035;-57
2022/07/02 11:40:27;;;;;;;6.78;3.88;;;;;;;;;;5113977;28;20062;-56
2022/07/02 11:42:54;;;;;;;4.63;3.67;;;;;;;;;;5113766;28;20047;-56
2022/07/02 11:45:22;;;;;;;4.75;4.03;;;;;;;;;;5114028;28;20431;-58
2022/07/02 11:47:51;;;;;;;4.50;3.90;;;;;;;;;;5114057;27;20041;-57
2022/07/02 11:50:28;;;;;;;5.30;3.88;;;;;;;;;;5113688;28;20444;-57
2022/07/02 11:52:56;;;;;;;5.55;3.90;;;;;;;;;;5113825;28;20040;-57
2022/07/02 11:55:24;;;;;;;5.80;4.00;;;;;;;;;;5113851;27;20395;-60
2022/07/02 11:57:52;;;;;;;5.93;3.95;;;;;;;;;;5113807;28;20039;-56
2022/07/02 12:00:19;;;;;;;4.20;3.60;;;;;;;;;;5113604;28;20495;-57
2022/07/02 12:02:47;;;;;;;7.65;3.92;;;;;;;;;;5113333;28;20820;-57
2022/07/02 12:05:19;;;;;;;9.50;4.00;;;;;;;;;;5113762;28;20046;-57
2022/07/02 12:07:47;;;;;;;9.70;3.73;;;;;;;;;;5113267;28;20043;-57
2022/07/02 12:10:14;;;;;;;5.45;4.13;;;;;;;;;;5113407;28;20048;-56
2022/07/02 12:12:42;;;;;;;5.05;3.50;;;;;;;;;;5113356;28;20036;-58
2022/07/02 12:15:10;;;;;;;4.75;3.88;;;;;;;;;;5113640;28;20047;-56
2022/07/02 12:17:49;;;;;;;5.70;4.00;;;;;;;;;;5113572;28;20118;-60
2022/07/02 12:20:20;;;;;;;4.13;3.60;;;;;;;;;;5112991;28;20046;-57
2022/07/02 12:22:52;;;;;;;9.00;3.92;;;;;;;;;;5113142;28;20040;-58
2022/07/02 12:25:20;;;;;;;6.57;4.32;;;;;;;;;;5113128;28;20065;-57
2022/07/02 12:27:53;;;;;;;47.38;38.58;;;;;;;;;;5113169;28;20036;-58
2022/07/02 12:30:22;;;;;;;15.70;10.43;;;;;;;;;;5113011;28;20521;-57
2022/07/02 12:32:53;;;;;;;6.78;3.95;;;;;;;;;;5112974;28;20032;-58
2022/07/02 12:35:21;;;;;;;4.28;3.85;;;;;;;;;;5113114;28;20044;-58
2022/07/02 12:37:52;;;;;;;5.15;3.80;;;;;;;;;;5094536;28;20084;-57
2022/07/02 12:40:21;;;;;;;6.85;3.42;;;;;;;;;;5112974;28;20040;-57
2022/07/02 12:42:58;;;;;;;5.43;3.70;;;;;;;;;;5111866;28;20047;-57
2022/07/02 12:45:38;;;;;;;4.53;3.85;;;;;;;;;;5094743;28;20134;-56
2022/07/02 12:48:16;;;;;;;4.05;3.50;;;;;;;;;;5112941;28;20043;-57
2022/07/02 12:50:48;;;;;;;4.50;3.95;;;;;;;;;;5090862;28;20048;-58
2022/07/02 12:53:18;;;;;;;4.10;3.65;;;;;;;;;;5092468;28;20139;-56
2022/07/02 12:55:58;;;;;;;4.97;4.07;;;;;;;;;;5092364;28;20036;-58
2022/07/02 12:58:26;;;;;;;5.43;3.47;;;;;;;;;;5092116;28;20032;-57
2022/07/02 13:00:56;;;;;;;6.00;3.95;;;;;;;;;;5092201;28;20065;-57
2022/07/02 13:03:24;;;;;;;4.32;3.80;;;;;;;;;;5092041;28;20048;-56
2022/07/02 13:05:58;;;;;;;5.78;3.72;;;;;;;;;;5092247;28;20514;-57
2022/07/02 13:08:26;;;;;;;4.65;3.88;;;;;;;;;;5091991;28;20079;-57
2022/07/02 13:10:55;;;;;;;5.68;3.67;;;;;;;;;;5092109;28;20040;-58
2022/07/02 13:13:23;;;;;;;7.22;5.18;;;;;;;;;;5092243;28;20036;-57
2022/07/02 13:15:51;;;;;;;6.93;4.40;;;;;;;;;;5092083;28;20126;-57
2022/07/02 13:18:18;;;;;;;5.30;3.63;;;;;;;;;;5092084;28;20075;-58
2022/07/02 13:20:46;;;;;;;6.97;3.80;;;;;;;;;;5091776;28;20040;-57
2022/07/02 13:23:14;;;;;;;4.05;3.65;;;;;;;;;;5092262;28;20052;-58
2022/07/02 13:25:44;;;;;;;5.20;3.63;;;;;;;;;;5092048;28;20042;-58
2022/07/02 13:28:11;;;;;;;6.18;3.50;;;;;;;;;;5091945;28;20051;-58
2022/07/02 13:30:38;;;;;;;3.85;3.45;;;;;;;;;;5092087;28;20123;-56
2022/07/02 13:33:06;;;;;;;19.73;13.93;;;;;;;;;;5091871;28;20040;-58
2022/07/02 13:35:33;;;;;;;4.85;4.32;;;;;;;;;;5092011;28;20044;-58
2022/07/02 13:38:00;;;;;;;6.25;3.90;;;;;;;;;;5092040;28;20071;-60
2022/07/02 13:40:27;;;;;;;4.15;3.75;;;;;;;;;;5091737;28;20471;-57
2022/07/02 13:42:55;;;;;;;5.40;4.43;;;;;;;;;;5091857;28;20036;-58
2022/07/02 13:45:22;;;;;;;4.70;3.70;;;;;;;;;;5091968;28;20058;-57
2022/07/02 13:47:49;;;;;;;4.55;3.90;;;;;;;;;;5091587;28;20067;-58
2022/07/02 13:50:19;;;;;;;4.93;3.92;;;;;;;;;;5091951;28;20444;-59
2022/07/02 13:52:47;;;;;;;3.60;3.20;;;;;;;;;;5091026;28;20048;-58
2022/07/02 13:55:14;;;;;;;5.07;3.97;;;;;;;;;;5094401;28;20048;-56
2022/07/02 13:57:41;;;;;;;4.57;3.75;;;;;;;;;;5095829;28;20036;-58
2022/07/02 14:00:09;;;;;;;5.88;4.00;;;;;;;;;;5095775;28;20105;-58
2022/07/02 14:02:40;;;;;;;5.65;3.80;;;;;;;;;;5095585;28;20071;-56
2022/07/02 14:05:08;;;;;;;5.75;4.07;;;;;;;;;;5095650;28;20036;-58
2022/07/02 14:07:35;;;;;;;5.40;3.83;;;;;;;;;;5095482;28;20048;-58
2022/07/02 14:10:03;;;;;;;6.80;4.30;;;;;;;;;;5095430;28;20048;-57
2022/07/02 14:12:30;;;;;;;5.40;3.83;;;;;;;;;;5095291;28;20075;-58
2022/07/02 14:14:58;;;;;;;7.32;4.45;;;;;;;;;;5095057;28;20040;-58
2022/07/02 14:17:25;;;;;;;4.63;3.95;;;;;;;;;;5093723;28;20059;-58
2022/07/02 14:19:53;;;;;;;9.70;3.83;;;;;;;;;;5095378;28;20040;-57
2022/07/02 14:22:23;;;;;;;4.88;3.75;;;;;;;;;;5095210;28;20059;-58
2022/07/02 14:24:50;;;;;;;4.18;3.78;;;;;;;;;;5094996;28;20436;-58
2022/07/02 14:27:17;;;;;;;4.10;3.40;;;;;;;;;;5095082;28;20043;-58
2022/07/02 14:29:47;;;;;;;5.03;3.70;;;;;;;;;;5095067;28;20495;-57
2022/07/02 14:32:14;;;;;;;6.82;4.30;;;;;;;;;;5095052;28;20090;-59
2022/07/02 14:34:42;;;;;;;4.47;3.70;;;;;;;;;;5095226;28;20040;-58
2022/07/02 14:37:11;;;;;;;4.07;3.67;;;;;;;;;;5095108;28;20495;-58
2022/07/02 14:39:39;;;;;;;5.38;4.47;;;;;;;;;;5094071;28;20495;-58
2022/07/02 14:42:06;;;;;;;6.22;3.67;;;;;;;;;;5094769;28;20064;-57
2022/07/02 14:44:35;;;;;;;5.43;3.90;;;;;;;;;;5094783;28;20047;-58
2022/07/02 14:47:02;;;;;;;5.95;3.92;;;;;;;;;;5094733;28;20050;-58
2022/07/02 14:49:31;;;;;;;4.07;3.67;;;;;;;;;;5093474;28;20047;-58
2022/07/02 14:51:58;;;;;;;4.95;3.83;;;;;;;;;;5108069;28;20055;-58
2022/07/02 14:54:26;;;;;;;5.13;3.60;;;;;;;;;;5114785;28;20040;-58
2022/07/02 14:56:53;;;;;;;4.10;3.60;;;;;;;;;;5115129;28;20401;-57